createdAt,value
2018-03-28T00:01:26.134Z,24.53
2018-03-28T00:03:54.609Z,22.73
2018-03-28T00:06:23.139Z,22.60
2018-03-28T00:08:51.670Z,23.33
2018-03-28T00:11:20.123Z,24.63
2018-03-28T00:13:48.618Z,21.97
2018-03-28T00:16:17.125Z,21.00
2018-03-28T00:18:45.583Z,21.57
2018-03-28T00:21:14.038Z,21.07
2018-03-28T00:23:42.542Z,20.73
2018-03-28T00:26:11.000Z,21.80
2018-03-28T00:28:39.481Z,19.73
2018-03-28T00:31:07.979Z,21.00
2018-03-28T00:33:36.474Z,19.83
2018-03-28T00:36:04.981Z,21.97
2018-03-28T00:38:33.443Z,20.37
2018-03-28T00:41:01.954Z,19.27
2018-03-28T00:43:30.463Z,18.83
2018-03-28T00:45:59.858Z,18.47
2018-03-28T00:48:28.350Z,18.90
2018-03-28T00:50:56.888Z,19.50
2018-03-28T00:53:25.421Z,20.17
2018-03-28T00:55:53.898Z,17.50
2018-03-28T00:58:22.394Z,18.40
2018-03-28T01:00:50.861Z,18.23
2018-03-28T01:03:19.398Z,18.50
2018-03-28T01:05:47.869Z,20.80
2018-03-28T01:08:16.365Z,19.17
2018-03-28T01:10:44.876Z,21.83
2018-03-28T01:13:13.338Z,19.30
2018-03-28T01:15:41.848Z,22.77
2018-03-28T01:18:10.342Z,20.40
2018-03-28T01:20:38.907Z,19.40
2018-03-28T01:23:07.423Z,21.60
2018-03-28T01:25:35.932Z,19.33
2018-03-28T01:28:04.410Z,19.53
2018-03-28T01:30:32.918Z,18.97
2018-03-28T01:33:01.385Z,19.43
2018-03-28T01:35:29.850Z,20.93
2018-03-28T01:37:58.342Z,21.73
2018-03-28T01:40:26.857Z,21.00
2018-03-28T01:42:55.350Z,20.57
2018-03-28T01:45:23.810Z,22.73
2018-03-28T01:47:52.310Z,23.20
2018-03-28T01:50:20.827Z,24.50
2018-03-28T01:52:49.301Z,20.47
2018-03-28T01:55:17.802Z,22.67
2018-03-28T01:57:46.295Z,20.57
2018-03-28T02:00:14.793Z,27.00
2018-03-28T02:02:43.305Z,22.87
2018-03-28T02:05:11.797Z,23.20
2018-03-28T02:07:40.285Z,22.27
2018-03-28T02:10:08.784Z,20.07
2018-03-28T02:12:37.266Z,19.47
2018-03-28T02:15:05.774Z,21.10
2018-03-28T02:17:34.289Z,19.93
2018-03-28T02:20:02.803Z,18.80
2018-03-28T02:22:31.302Z,19.07
2018-03-28T02:24:59.793Z,20.70
2018-03-28T02:27:28.290Z,17.90
2018-03-28T02:29:56.749Z,18.33
2018-03-28T02:32:25.258Z,18.57
2018-03-28T02:34:53.730Z,20.37
2018-03-28T02:37:22.223Z,20.30
2018-03-28T02:39:50.710Z,19.07
2018-03-28T02:42:19.211Z,20.10
2018-03-28T02:44:47.711Z,20.43
2018-03-28T02:47:16.618Z,21.87
2018-03-28T02:49:45.125Z,20.03
2018-03-28T02:52:13.635Z,22.03
2018-03-28T02:54:42.110Z,22.77
2018-03-28T02:57:10.609Z,22.60
2018-03-28T02:59:39.106Z,22.60
2018-03-28T03:02:07.606Z,21.07
2018-03-28T03:04:36.113Z,21.47
2018-03-28T03:07:04.634Z,21.63
2018-03-28T03:09:33.133Z,21.47
2018-03-28T03:12:01.621Z,20.60
2018-03-28T03:14:30.114Z,21.07
2018-03-28T03:16:58.579Z,22.60
2018-03-28T03:19:27.081Z,24.37
2018-03-28T03:21:55.552Z,22.67
2018-03-28T03:24:24.010Z,24.33
2018-03-28T03:26:52.518Z,23.63
2018-03-28T03:29:21.009Z,22.93
2018-03-28T03:31:49.473Z,24.47
2018-03-28T03:34:17.930Z,23.73
2018-03-28T03:36:46.472Z,23.23
2018-03-28T03:39:14.942Z,23.00
2018-03-28T03:41:43.416Z,24.00
2018-03-28T03:44:11.906Z,27.93
2018-03-28T03:46:40.374Z,27.20
2018-03-28T03:49:08.913Z,29.73
2018-03-28T03:51:37.369Z,28.17
2018-03-28T03:54:05.864Z,26.63
2018-03-28T03:56:34.325Z,26.00
2018-03-28T03:59:02.832Z,25.87
2018-03-28T04:01:31.348Z,25.60
2018-03-28T04:03:59.846Z,26.00
2018-03-28T04:06:28.325Z,21.03
2018-03-28T04:08:56.818Z,25.40
2018-03-28T04:11:25.285Z,22.20
2018-03-28T04:13:53.748Z,24.60
2018-03-28T04:16:22.249Z,24.77
2018-03-28T04:18:50.758Z,24.40
2018-03-28T04:21:19.218Z,24.90
2018-03-28T04:23:47.696Z,23.80
2018-03-28T04:26:16.185Z,26.43
2018-03-28T04:28:44.654Z,27.90
2018-03-28T04:31:13.150Z,29.17
2018-03-28T04:33:41.651Z,26.07
2018-03-28T04:36:10.126Z,25.33
2018-03-28T04:38:38.633Z,28.53
2018-03-28T04:41:07.140Z,25.07
2018-03-28T04:43:35.647Z,28.97
2018-03-28T04:46:04.110Z,25.53
2018-03-28T04:48:32.665Z,27.57
2018-03-28T04:51:01.175Z,28.40
2018-03-28T04:53:29.631Z,30.40
2018-03-28T04:55:58.090Z,28.70
2018-03-28T04:58:26.614Z,27.17
2018-03-28T05:00:55.105Z,26.67
2018-03-28T05:03:23.602Z,26.40
2018-03-28T05:05:52.118Z,28.33
2018-03-28T05:08:20.594Z,25.80
2018-03-28T05:10:49.074Z,27.77
2018-03-28T05:13:17.614Z,25.10
2018-03-28T05:15:46.132Z,26.07
2018-03-28T05:18:14.632Z,27.60
2018-03-28T05:20:43.198Z,28.73
2018-03-28T05:23:11.665Z,27.07
2018-03-28T05:25:40.297Z,23.93
2018-03-28T05:28:09.050Z,25.80
2018-03-28T05:30:37.521Z,24.30
2018-03-28T05:33:05.999Z,24.50
2018-03-28T05:35:34.499Z,24.63
2018-03-28T05:38:02.960Z,26.33
2018-03-28T05:40:31.478Z,30.73
2018-03-28T05:42:59.979Z,29.83
2018-03-28T05:45:28.469Z,28.43
2018-03-28T05:47:56.975Z,30.63
2018-03-28T05:50:25.506Z,28.47
2018-03-28T05:52:54.002Z,28.30
2018-03-28T05:55:22.536Z,31.43
2018-03-28T05:57:51.054Z,27.67
2018-03-28T06:00:19.511Z,27.13
2018-03-28T06:02:48.010Z,28.17
2018-03-28T06:05:16.496Z,28.83
2018-03-28T06:07:44.994Z,32.33
2018-03-28T06:10:13.460Z,33.27
2018-03-28T06:12:41.958Z,36.47
2018-03-28T06:15:10.470Z,28.73
2018-03-28T06:17:38.940Z,30.10
2018-03-28T06:20:07.455Z,31.43
2018-03-28T06:22:35.993Z,31.30
2018-03-28T06:25:04.491Z,30.73
2018-03-28T06:27:32.998Z,29.37
2018-03-28T06:30:01.502Z,29.03
2018-03-28T06:32:30.018Z,35.63
2018-03-28T06:34:58.478Z,31.33
2018-03-28T06:37:26.962Z,32.27
2018-03-28T06:39:55.543Z,31.67
2018-03-28T06:42:24.002Z,31.20
2018-03-28T06:44:52.511Z,30.50
2018-03-28T06:47:21.057Z,31.80
2018-03-28T06:49:49.531Z,31.13
2018-03-28T06:52:18.064Z,32.83
2018-03-28T06:54:46.548Z,43.10
2018-03-28T06:57:15.005Z,37.10
2018-03-28T06:59:43.568Z,48.63
2018-03-28T07:02:12.008Z,32.50
2018-03-28T07:04:41.289Z,32.97
2018-03-28T07:07:09.776Z,31.87
2018-03-28T07:09:38.277Z,33.17
2018-03-28T07:12:06.785Z,31.23
2018-03-28T07:14:35.243Z,29.53
2018-03-28T07:17:03.755Z,22.10
2018-03-28T07:19:32.226Z,20.80
2018-03-28T07:22:01.085Z,22.83
2018-03-28T07:24:29.698Z,22.70
2018-03-28T07:26:58.205Z,23.50
2018-03-28T07:29:26.670Z,26.40
2018-03-28T07:31:55.178Z,22.90
2018-03-28T07:34:23.665Z,27.03
2018-03-28T07:36:52.149Z,24.10
2018-03-28T07:39:20.666Z,27.37
2018-03-28T07:41:49.132Z,20.83
2018-03-28T07:44:17.609Z,19.97
2018-03-28T07:46:46.105Z,22.47
2018-03-28T07:49:14.623Z,21.83
2018-03-28T07:51:43.134Z,26.00
2018-03-28T07:54:11.606Z,23.77
2018-03-28T07:56:40.115Z,25.00
2018-03-28T07:59:08.581Z,44.23
2018-03-28T08:01:37.087Z,26.27
2018-03-28T08:04:05.586Z,20.47
2018-03-28T08:06:34.054Z,18.30
2018-03-28T08:09:02.555Z,20.40
2018-03-28T08:11:31.055Z,23.87
2018-03-28T08:13:59.578Z,25.63
2018-03-28T08:16:28.038Z,22.67
2018-03-28T08:18:56.538Z,23.80
2018-03-28T08:21:25.074Z,20.43
2018-03-28T08:23:53.530Z,22.97
2018-03-28T08:26:22.006Z,20.80
2018-03-28T08:28:50.514Z,22.40
2018-03-28T08:31:19.021Z,21.73
2018-03-28T08:33:47.542Z,22.97
2018-03-28T08:36:16.083Z,25.10
2018-03-28T08:38:44.542Z,24.60
2018-03-28T08:41:13.059Z,24.33
2018-03-28T08:43:41.522Z,32.07
2018-03-28T08:46:10.031Z,23.03
2018-03-28T08:48:38.564Z,23.53
2018-03-28T08:51:07.054Z,22.53
2018-03-28T08:53:35.575Z,27.60
2018-03-28T08:56:04.068Z,27.97
2018-03-28T08:58:32.547Z,27.03
2018-03-28T09:01:01.042Z,24.73
2018-03-28T09:03:29.540Z,26.00
2018-03-28T09:05:58.076Z,27.53
2018-03-28T09:08:26.588Z,26.83
2018-03-28T09:10:55.104Z,25.77
2018-03-28T09:13:26.160Z,24.90
2018-03-28T09:15:56.792Z,24.23
2018-03-28T09:18:26.080Z,24.07
2018-03-28T09:20:54.917Z,22.37
2018-03-28T09:23:23.493Z,22.87
2018-03-28T09:25:51.957Z,20.90
2018-03-28T09:28:20.457Z,19.93
2018-03-28T09:30:48.957Z,20.70
2018-03-28T09:33:17.427Z,21.27
2018-03-28T09:35:45.943Z,20.27
2018-03-28T09:38:14.447Z,20.30
2018-03-28T09:40:42.954Z,21.07
2018-03-28T09:43:11.440Z,19.57
2018-03-28T09:45:39.964Z,18.97
2018-03-28T09:48:08.439Z,19.57
2018-03-28T09:50:36.949Z,17.97
2018-03-28T09:53:05.470Z,18.50
2018-03-28T09:55:33.943Z,18.67
2018-03-28T09:58:02.453Z,19.67
2018-03-28T10:00:30.943Z,22.20
2018-03-28T10:03:04.837Z,20.60
2018-03-28T10:05:39.167Z,20.23
2018-03-28T10:08:07.677Z,19.17
2018-03-28T10:10:36.429Z,18.40
2018-03-28T10:13:04.902Z,20.63
2018-03-28T10:15:33.413Z,19.53
2018-03-28T10:18:01.890Z,19.57
2018-03-28T10:20:30.406Z,21.47
2018-03-28T10:22:58.868Z,17.50
2018-03-28T10:25:27.382Z,18.93
2018-03-28T10:27:55.850Z,22.97
2018-03-28T10:30:24.342Z,27.73
2018-03-28T10:32:52.868Z,25.33
2018-03-28T10:35:21.370Z,21.50
2018-03-28T10:37:50.160Z,20.33
2018-03-28T10:40:19.662Z,25.83
2018-03-28T10:42:48.163Z,19.60
2018-03-28T10:45:16.686Z,20.60
2018-03-28T10:47:45.190Z,21.47
2018-03-28T10:50:13.740Z,20.53
2018-03-28T10:52:42.334Z,17.63
2018-03-28T10:55:10.802Z,15.87
2018-03-28T10:57:39.314Z,13.10
2018-03-28T11:00:07.858Z,21.13
2018-03-28T11:02:36.370Z,14.40
2018-03-28T11:05:04.838Z,15.53
2018-03-28T11:07:33.245Z,18.93
2018-03-28T11:10:01.645Z,14.00
2018-03-28T11:12:30.095Z,14.10
2018-03-28T11:14:58.570Z,39.40
2018-03-28T11:17:27.069Z,15.13
2018-03-28T11:19:55.478Z,22.03
2018-03-28T11:22:23.912Z,14.30
2018-03-28T11:24:52.361Z,15.70
2018-03-28T11:27:20.805Z,14.87
2018-03-28T11:29:49.298Z,14.87
2018-03-28T11:32:17.734Z,14.10
2018-03-28T11:34:46.163Z,15.80
2018-03-28T11:37:14.671Z,15.43
2018-03-28T11:39:43.133Z,15.40
2018-03-28T11:42:12.045Z,14.60
2018-03-28T11:44:40.702Z,20.93
2018-03-28T11:47:09.199Z,20.83
2018-03-28T11:49:37.718Z,21.63
2018-03-28T11:52:06.199Z,24.83
2018-03-28T11:54:34.678Z,20.83
2018-03-28T11:57:03.201Z,28.93
2018-03-28T11:59:31.713Z,27.63
2018-03-28T12:02:00.250Z,26.97
2018-03-28T12:04:28.769Z,27.60
2018-03-28T12:06:57.274Z,26.70
2018-03-28T12:09:25.774Z,29.07
2018-03-28T12:11:54.289Z,27.70
2018-03-28T12:14:22.818Z,28.73
2018-03-28T12:16:51.282Z,28.17
2018-03-28T12:19:19.845Z,26.80
2018-03-28T12:21:48.365Z,26.20
2018-03-28T12:24:16.903Z,28.03
2018-03-28T12:26:45.417Z,26.63
2018-03-28T12:29:13.913Z,26.27
2018-03-28T12:31:42.390Z,25.03
2018-03-28T12:34:10.912Z,25.67
2018-03-28T12:36:39.378Z,27.13
2018-03-28T12:39:07.941Z,26.43
2018-03-28T12:41:36.442Z,27.10
2018-03-28T12:44:04.964Z,25.90
2018-03-28T12:46:33.443Z,24.67
2018-03-28T12:49:01.950Z,25.20
2018-03-28T12:51:30.444Z,24.83
2018-03-28T12:53:59.009Z,25.00
2018-03-28T12:56:27.528Z,23.30
2018-03-28T12:58:56.125Z,23.23
2018-03-28T13:01:25.242Z,23.83
2018-03-28T13:03:53.756Z,26.47
2018-03-28T13:06:22.266Z,25.57
2018-03-28T13:08:50.815Z,34.30
2018-03-28T13:11:19.301Z,26.37
2018-03-28T13:13:47.824Z,25.00
2018-03-28T13:16:16.339Z,23.63
2018-03-28T13:18:44.870Z,23.50
2018-03-28T13:21:13.438Z,23.23
2018-03-28T13:23:41.946Z,24.87
2018-03-28T13:26:10.423Z,28.03
2018-03-28T13:28:38.922Z,27.67
2018-03-28T13:31:07.386Z,25.97
2018-03-28T13:33:35.912Z,27.87
2018-03-28T13:36:04.437Z,26.87
2018-03-28T13:38:32.946Z,26.63
2018-03-28T13:41:01.446Z,28.17
2018-03-28T13:43:29.921Z,27.40
2018-03-28T13:45:58.414Z,26.03
2018-03-28T13:48:26.927Z,22.83
2018-03-28T13:50:55.452Z,23.37
2018-03-28T13:53:23.919Z,23.40
2018-03-28T13:55:52.458Z,25.10
2018-03-28T13:58:20.930Z,27.87
2018-03-28T14:00:49.398Z,23.90
2018-03-28T14:03:17.962Z,25.43
2018-03-28T14:05:46.485Z,24.80
2018-03-28T14:08:15.058Z,25.00
2018-03-28T14:10:43.593Z,27.27
2018-03-28T14:13:12.098Z,27.40
2018-03-28T14:15:40.626Z,26.23
2018-03-28T14:18:09.094Z,24.60
2018-03-28T14:20:37.569Z,26.50
2018-03-28T14:23:06.078Z,25.40
2018-03-28T14:25:34.550Z,26.93
2018-03-28T14:28:03.234Z,25.33
2018-03-28T14:30:31.726Z,25.73
2018-03-28T14:33:00.257Z,27.50
2018-03-28T14:35:28.760Z,26.63
2018-03-28T14:37:57.226Z,27.00
2018-03-28T14:40:25.774Z,28.30
2018-03-28T14:42:54.586Z,30.50
2018-03-28T14:45:22.807Z,27.30
2018-03-28T14:47:51.270Z,37.47
2018-03-28T14:50:19.773Z,26.20
2018-03-28T14:52:48.270Z,26.77
2018-03-28T14:55:16.735Z,25.87
2018-03-28T14:57:45.249Z,25.87
2018-03-28T15:00:13.714Z,24.37
2018-03-28T15:02:42.226Z,24.57
2018-03-28T15:05:10.710Z,24.07
2018-03-28T15:07:39.247Z,21.90
2018-03-28T15:10:07.722Z,23.93
2018-03-28T15:12:36.226Z,25.37
2018-03-28T15:15:04.721Z,23.90
2018-03-28T15:17:33.218Z,23.50
2018-03-28T15:20:01.735Z,24.43
2018-03-28T15:22:30.202Z,24.37
2018-03-28T15:24:58.665Z,22.93
2018-03-28T15:27:27.182Z,25.13
2018-03-28T15:29:55.647Z,22.70
2018-03-28T15:32:24.128Z,22.30
2018-03-28T15:34:52.630Z,26.63
2018-03-28T15:37:21.129Z,24.37
2018-03-28T15:39:49.644Z,23.70
2018-03-28T15:42:18.110Z,22.20
2018-03-28T15:44:46.610Z,21.80
2018-03-28T15:47:15.096Z,20.83
2018-03-28T15:49:43.599Z,22.07
2018-03-28T15:52:12.098Z,23.17
2018-03-28T15:54:40.602Z,26.60
2018-03-28T15:57:09.099Z,26.97
2018-03-28T15:59:37.603Z,25.57
2018-03-28T16:02:06.062Z,24.17
2018-03-28T16:04:34.582Z,24.20
2018-03-28T16:07:03.090Z,22.20
2018-03-28T16:09:31.556Z,22.77
2018-03-28T16:12:00.076Z,23.17
2018-03-28T16:14:28.537Z,36.67
2018-03-28T16:16:57.042Z,22.33
2018-03-28T16:19:25.547Z,22.27
2018-03-28T16:21:54.041Z,19.43
2018-03-28T16:24:22.508Z,20.90
2018-03-28T16:26:51.010Z,19.40
2018-03-28T16:29:19.498Z,19.67
2018-03-28T16:31:48.028Z,19.40
2018-03-28T16:34:16.534Z,18.50
2018-03-28T16:36:45.043Z,18.90
2018-03-28T16:39:13.574Z,19.23
2018-03-28T16:41:42.096Z,17.90
2018-03-28T16:44:10.591Z,18.73
2018-03-28T16:46:39.089Z,19.30
2018-03-28T16:49:07.614Z,20.07
2018-03-28T16:51:36.077Z,20.67
2018-03-28T16:54:04.586Z,19.30
2018-03-28T16:56:33.265Z,18.27
2018-03-28T16:59:01.790Z,17.30
2018-03-28T17:01:30.302Z,18.97
2018-03-28T17:03:58.773Z,18.60
2018-03-28T17:06:27.278Z,21.53
2018-03-28T17:08:55.753Z,23.13
2018-03-28T17:11:24.213Z,24.37
2018-03-28T17:13:52.716Z,26.73
2018-03-28T17:16:21.206Z,30.67
2018-03-28T17:18:49.746Z,27.53
2018-03-28T17:21:18.237Z,27.43
2018-03-28T17:23:46.699Z,26.90
2018-03-28T17:26:15.190Z,23.63
2018-03-28T17:28:43.714Z,24.67
2018-03-28T17:31:12.166Z,20.10
2018-03-28T17:33:40.628Z,23.73
2018-03-28T17:36:09.117Z,19.17
2018-03-28T17:38:37.592Z,17.77
2018-03-28T17:41:06.094Z,17.30
2018-03-28T17:43:34.578Z,23.00
2018-03-28T17:46:03.090Z,23.47
2018-03-28T17:48:31.555Z,21.60
2018-03-28T17:51:00.023Z,17.07
2018-03-28T17:53:28.530Z,19.53
2018-03-28T17:55:56.995Z,21.97
2018-03-28T17:58:25.497Z,23.60
2018-03-28T18:00:53.962Z,20.60
2018-03-28T18:03:22.461Z,17.77
2018-03-28T18:05:51.067Z,17.33
2018-03-28T18:08:19.562Z,16.67
2018-03-28T18:10:48.018Z,16.43
2018-03-28T18:13:16.551Z,16.60
2018-03-28T18:15:45.042Z,16.40
2018-03-28T18:18:13.534Z,17.97
2018-03-28T18:20:41.991Z,17.77
2018-03-28T18:23:10.490Z,46.40
2018-03-28T18:25:38.958Z,109.37
2018-03-28T18:28:07.455Z,135.27
2018-03-28T18:30:35.965Z,59.17
2018-03-28T18:33:04.448Z,26.23
2018-03-28T18:35:32.950Z,50.60
2018-03-28T18:38:01.410Z,296.10
2018-03-28T18:40:29.996Z,207.73
2018-03-28T18:42:58.465Z,173.77
2018-03-28T18:45:26.969Z,140.33
2018-03-28T18:47:55.438Z,144.57
2018-03-28T18:50:23.900Z,120.47
2018-03-28T18:52:52.485Z,133.47
2018-03-28T18:55:20.968Z,114.10
2018-03-28T18:57:49.470Z,74.80
2018-03-28T19:00:17.961Z,43.60
2018-03-28T19:02:46.425Z,31.10
2018-03-28T19:05:14.930Z,24.50
2018-03-28T19:07:43.398Z,24.83
2018-03-28T19:10:11.886Z,24.63
2018-03-28T19:12:40.344Z,26.90
2018-03-28T19:15:08.832Z,38.77
2018-03-28T19:17:37.321Z,43.07
2018-03-28T19:20:05.782Z,49.47
2018-03-28T19:22:34.297Z,35.93
2018-03-28T19:25:02.770Z,34.60
2018-03-28T19:27:31.324Z,36.20
2018-03-28T19:29:59.794Z,50.77
2018-03-28T19:32:28.254Z,29.17
2018-03-28T19:34:56.800Z,29.43
2018-03-28T19:37:25.249Z,27.03
2018-03-28T19:39:53.741Z,29.20
2018-03-28T19:42:22.206Z,43.73
2018-03-28T19:44:50.702Z,49.60
2018-03-28T19:47:19.159Z,43.73
2018-03-28T19:49:47.624Z,40.03
2018-03-28T19:52:16.146Z,48.17
2018-03-28T19:54:44.669Z,49.20
2018-03-28T19:57:13.126Z,37.13
2018-03-28T19:59:41.643Z,43.13
2018-03-28T20:02:10.138Z,36.97
2018-03-28T20:04:38.597Z,35.93
2018-03-28T20:07:07.095Z,32.93
2018-03-28T20:09:35.589Z,32.03
2018-03-28T20:12:04.084Z,36.63
2018-03-28T20:14:32.608Z,36.60
2018-03-28T20:17:01.062Z,42.43
2018-03-28T20:19:29.546Z,45.57
2018-03-28T20:21:58.059Z,46.13
2018-03-28T20:24:26.526Z,47.10
2018-03-28T20:26:55.027Z,53.70
2018-03-28T20:29:23.478Z,48.87
2018-03-28T20:31:51.986Z,48.10
2018-03-28T20:34:20.440Z,47.20
2018-03-28T20:36:48.897Z,46.20
2018-03-28T20:39:17.387Z,51.03
2018-03-28T20:41:45.891Z,55.97
2018-03-28T20:44:14.386Z,54.53
2018-03-28T20:46:42.858Z,50.53
2018-03-28T20:49:11.351Z,57.40
2018-03-28T20:51:39.886Z,61.60
2018-03-28T20:54:08.347Z,59.13
2018-03-28T20:56:36.847Z,59.57
2018-03-28T20:59:05.353Z,58.27
2018-03-28T21:01:33.812Z,59.50
2018-03-28T21:04:02.291Z,54.13
2018-03-28T21:06:30.806Z,56.83
2018-03-28T21:08:59.262Z,59.67
2018-03-28T21:11:27.776Z,56.33
2018-03-28T21:13:56.306Z,57.43
2018-03-28T21:16:24.851Z,53.17
2018-03-28T21:18:53.309Z,56.97
2018-03-28T21:21:21.764Z,59.20
2018-03-28T21:23:50.254Z,58.17
2018-03-28T21:26:18.755Z,65.40
2018-03-28T21:28:47.266Z,58.73
2018-03-28T21:31:15.738Z,63.37
2018-03-28T21:33:44.230Z,60.77
2018-03-28T21:36:12.738Z,60.73
2018-03-28T21:38:41.218Z,62.57
2018-03-28T21:41:09.746Z,65.30
2018-03-28T21:43:38.221Z,59.13
2018-03-28T21:46:06.686Z,62.50
2018-03-28T21:48:35.178Z,59.67
2018-03-28T21:51:03.670Z,61.43
2018-03-28T21:53:32.158Z,61.97
2018-03-28T21:56:00.657Z,60.43
2018-03-28T21:58:29.162Z,55.57
2018-03-28T22:00:57.673Z,50.13
2018-03-28T22:03:26.131Z,51.90
2018-03-28T22:05:54.622Z,52.13
2018-03-28T22:08:23.749Z,57.40
2018-03-28T22:10:52.246Z,56.93
2018-03-28T22:13:20.742Z,57.80
2018-03-28T22:15:49.228Z,57.13
2018-03-28T22:18:17.718Z,54.50
2018-03-28T22:20:46.178Z,60.20
2018-03-28T22:23:14.680Z,57.43
2018-03-28T22:25:43.207Z,58.13
2018-03-28T22:28:11.696Z,58.50
2018-03-28T22:30:40.154Z,59.77
2018-03-28T22:33:08.649Z,56.83
2018-03-28T22:35:37.204Z,56.87
2018-03-28T22:38:06.582Z,60.43
2018-03-28T22:40:35.037Z,61.80
2018-03-28T22:43:03.552Z,58.60
2018-03-28T22:45:32.028Z,61.03
2018-03-28T22:48:00.493Z,60.17
2018-03-28T22:50:29.014Z,63.97
2018-03-28T22:52:57.518Z,70.63
2018-03-28T22:55:25.991Z,68.47
2018-03-28T22:57:54.446Z,73.27
2018-03-28T23:00:22.938Z,73.20
2018-03-28T23:02:51.424Z,79.67
2018-03-28T23:05:19.922Z,76.27
2018-03-28T23:07:48.375Z,73.67
2018-03-28T23:10:16.833Z,85.50
2018-03-28T23:12:45.329Z,87.13
2018-03-28T23:15:13.818Z,86.77
2018-03-28T23:17:42.321Z,86.90
2018-03-28T23:20:10.831Z,124.93
2018-03-28T23:22:39.334Z,159.60
2018-03-28T23:25:07.850Z,138.07
2018-03-28T23:27:36.315Z,139.07
2018-03-28T23:30:04.850Z,102.23
2018-03-28T23:32:33.330Z,101.07
2018-03-28T23:35:01.822Z,87.43
2018-03-28T23:37:30.297Z,77.97
2018-03-28T23:39:58.815Z,76.53
2018-03-28T23:42:27.274Z,72.97
2018-03-28T23:44:55.770Z,70.27
2018-03-28T23:47:24.282Z,80.23
2018-03-28T23:49:52.733Z,73.00
2018-03-28T23:52:21.240Z,74.80
2018-03-28T23:54:49.704Z,75.50
2018-03-28T23:57:18.202Z,74.43
2018-03-28T23:59:46.693Z,73.60
